Time,TemperatureF,DewpointF,PressureIn,WindDirection,WindDirectionDegrees,WindSpeedMPH,WindSpeedGustMPH,Humidity,HourlyPrecipIn,Conditions,Clouds,dailyrainin,SoftwareType,DateUTC
2013-11-01 00:05:00,48.8,48.8,30.19,ENE,75,0.0,0.0,100,0.00,,,0.02,Wunderground v.1.15,2013-11-01 07:05:00,
2013-11-01 00:35:00,47.7,47.7,30.18,ENE,75,0.0,0.0,100,0.00,,,0.02,Wunderground v.1.15,2013-11-01 07:35:00,
2013-11-01 01:05:00,47.4,47.4,30.19,ENE,75,0.0,0.0,100,0.00,,,0.02,Wunderground v.1.15,2013-11-01 08:05:00,
2013-11-01 01:35:00,47.0,47.0,30.19,ENE,75,0.0,0.0,100,0.00,,,0.00,Wunderground v.1.15,2013-11-01 08:35:00,
2013-11-01 02:05:00,47.9,47.9,30.19,ENE,75,0.0,0.0,100,0.00,,,0.00,Wunderground v.1.15,2013-11-01 09:05:00,
2013-11-01 02:35:00,51.3,51.3,30.17,ENE,76,0.0,1.0,100,0.00,,,0.00,Wunderground v.1.15,2013-11-01 09:35:00,
2013-11-01 03:05:00,52.8,52.8,30.17,ESE,114,0.0,2.0,100,0.00,,,0.00,Wunderground v.1.15,2013-11-01 10:05:00,
2013-11-01 03:35:00,52.5,52.5,30.17,East,80,0.0,0.0,100,0.00,,,0.00,Wunderground v.1.15,2013-11-01 10:35:00,
2013-11-01 04:05:00,51.6,51.6,30.16,ENE,72,0.0,1.0,100,0.00,,,0.00,Wunderground v.1.15,2013-11-01 11:05:00,
2013-11-01 04:35:00,51.0,51.0,30.16,ENE,72,0.0,0.0,100,0.00,,,0.01,Wunderground v.1.15,2013-11-01 11:35:00,
2013-11-01 05:05:00,50.4,50.4,30.15,ENE,73,0.0,0.0,100,0.00,,,0.01,Wunderground v.1.15,2013-11-01 12:05:00,
2013-11-01 05:35:00,50.4,50.4,30.15,ENE,75,0.0,0.0,100,0.00,,,0.01,Wunderground v.1.15,2013-11-01 12:35:00,
2013-11-01 06:05:00,51.0,51.0,30.15,ENE,58,0.0,1.0,100,0.00,,,0.01,Wunderground v.1.15,2013-11-01 13:05:00,
2013-11-01 06:35:00,50.8,50.8,30.16,ENE,58,0.0,0.0,100,0.00,,,0.01,Wunderground v.1.15,2013-11-01 13:35:00,
2013-11-01 07:05:00,49.9,49.9,30.16,ENE,58,0.0,0.0,100,0.00,,,0.01,Wunderground v.1.15,2013-11-01 14:05:00,
2013-11-01 07:35:00,49.8,49.8,30.15,ENE,58,0.0,0.0,100,0.00,,,0.01,Wunderground v.1.15,2013-11-01 14:35:00,
2013-11-01 08:05:00,49.8,49.8,30.14,ENE,58,0.0,0.0,100,0.00,,,0.01,Wunderground v.1.15,2013-11-01 15:05:00,
2013-11-01 08:35:00,51.0,51.0,30.14,ESE,103,0.0,1.0,100,0.00,,,0.01,Wunderground v.1.15,2013-11-01 15:35:00,
2013-11-01 09:05:00,53.1,53.1,30.14,ENE,72,0.0,3.0,100,0.00,,,0.01,Wunderground v.1.15,2013-11-01 16:05:00,
2013-11-01 09:35:00,54.1,54.1,30.14,NE,41,1.0,1.0,100,0.00,,,0.01,Wunderground v.1.15,2013-11-01 16:35:00,
2013-11-01 10:05:00,55.3,55.3,30.14,NNE,30,1.0,1.0,100,0.00,,,0.01,Wunderground v.1.15,2013-11-01 17:05:00,
2013-11-01 10:35:00,56.3,56.3,30.12,NNE,31,1.0,5.0,100,0.00,,,0.01,Wunderground v.1.15,2013-11-01 17:35:00,
2013-11-01 11:05:00,57.3,56.7,30.11,NE,45,1.0,8.0,98,0.00,,,0.01,Wunderground v.1.15,2013-11-01 18:05:00,
2013-11-01 11:35:00,58.1,56.7,30.11,East,93,1.0,6.0,95,0.00,,,0.01,Wunderground v.1.15,2013-11-01 18:35:00,
2013-11-01 12:05:00,58.6,56.6,30.11,ENE,76,3.0,3.0,93,0.00,,,0.01,Wunderground v.1.15,2013-11-01 19:05:00,
2013-11-01 12:35:00,60.1,57.2,30.09,NNE,27,1.0,6.0,90,0.00,,,0.01,Wunderground v.1.15,2013-11-01 19:35:00,
2013-11-01 13:05:00,61.2,57.3,30.09,NNE,25,1.0,8.0,87,0.00,,,0.01,Wunderground v.1.15,2013-11-01 20:05:00,
2013-11-01 13:35:00,62.1,57.9,30.07,ENE,62,1.0,1.0,86,0.00,,,0.01,Wunderground v.1.15,2013-11-01 20:35:00,
2013-11-01 14:35:00,64.0,58.4,30.03,NE,48,0.0,3.0,82,0.00,,,0.01,Wunderground v.1.15,2013-11-01 21:35:00,
2013-11-01 15:05:00,64.0,59.1,30.03,East,80,0.0,1.0,84,0.00,,,0.01,Wunderground v.1.15,2013-11-01 22:05:00,
2013-11-01 15:35:00,64.2,58.9,30.01,East,80,0.0,1.0,83,0.00,,,0.01,Wunderground v.1.15,2013-11-01 22:35:00,
2013-11-01 16:05:00,61.2,57.6,30.02,East,80,0.0,0.0,88,0.00,,,0.01,Wunderground v.1.15,2013-11-01 23:05:00,
2013-11-01 16:35:00,59.0,56.7,30.01,East,80,0.0,0.0,92,0.00,,,0.01,Wunderground v.1.15,2013-11-01 23:35:00,
2013-11-01 17:05:00,58.0,56.3,30.01,East,80,0.0,0.0,94,0.00,,,0.01,Wunderground v.1.15,2013-11-02 00:05:00,
2013-11-01 17:35:00,57.5,56.1,29.99,East,80,0.0,0.0,95,0.00,,,0.01,Wunderground v.1.15,2013-11-02 00:35:00,
2013-11-01 18:05:00,56.5,55.4,29.97,East,80,0.0,0.0,96,0.00,,,0.01,Wunderground v.1.15,2013-11-02 01:05:00,
2013-11-01 18:35:00,55.1,55.1,29.96,East,80,0.0,0.0,100,0.00,,,0.01,Wunderground v.1.15,2013-11-02 01:35:00,
2013-11-01 19:05:00,54.5,54.5,29.94,East,80,0.0,0.0,100,0.00,,,0.01,Wunderground v.1.15,2013-11-02 02:05:00,
2013-11-01 19:35:00,53.6,53.6,29.94,East,80,0.0,0.0,100,0.00,,,0.01,Wunderground v.1.15,2013-11-02 02:35:00,
2013-11-01 20:05:00,53.5,53.5,29.93,East,80,0.0,0.0,100,0.00,,,0.01,Wunderground v.1.15,2013-11-02 03:05:00,
2013-11-01 20:35:00,53.1,53.1,29.92,East,80,0.0,0.0,100,0.00,,,0.01,Wunderground v.1.15,2013-11-02 03:35:00,
2013-11-01 21:05:00,52.9,52.9,29.92,East,80,0.0,0.0,100,0.00,,,0.01,Wunderground v.1.15,2013-11-02 04:05:00,
2013-11-01 21:35:00,52.9,52.9,29.92,East,80,0.0,0.0,100,0.00,,,0.01,Wunderground v.1.15,2013-11-02 04:35:00,
2013-11-01 22:05:00,52.9,52.9,29.91,East,80,0.0,0.0,100,0.00,,,0.01,Wunderground v.1.15,2013-11-02 05:05:00,
2013-11-01 22:35:00,52.5,52.5,29.91,East,80,0.0,0.0,100,0.00,,,0.01,Wunderground v.1.15,2013-11-02 05:35:00,
2013-11-01 23:05:00,52.5,52.5,29.90,East,80,0.0,0.0,100,0.00,,,0.01,Wunderground v.1.15,2013-11-02 06:05:00,
2013-11-01 23:35:00,52.6,52.6,29.89,East,80,0.0,0.0,100,0.00,,,0.01,Wunderground v.1.15,2013-11-02 06:35:00,